Weather at Honiara International Airport

Public forecast

Using degrees Celsius for public forecast. Weather courtesy of forecast.io.

Current aviation weather report (METAR) for Honiara International Airport

2022/12/02 22:00 (retrieved 1 hour ago)

AGGH 022200Z 32004KT 6000M SHRA FEW014 FEW015CB SCT026 OVC100 24/24 Q1008

Aviation forecast (TAF) for Honiara International Airport

2022/12/02 18:00 (retrieved 5 hours ago)

TAF AGGH 021710Z 0218/0318 34008KT 9999 SCT017 BKN100 PROB40 INTER 0218/0300 5000 TSSH BKN015 FEW017CB T 23 27 29 28 Q 1004 1006 1006 1004